Time;durP1;ratioP1;P1;durP2;ratioP2;P2;SDS_P1;SDS_P2;PMS_P1;PMS_P2;Temp;Humidity;BMP_temperature;BMP_pressure;BME280_temperature;BME280_humidity;BME280_pressure;Samples;Min_cycle;Max_cycle;Signal;HPM_P1;HPM_P2
2023/06/05 00:01:42;;;;;;;4.27;3.97;;;17.40;92.50;;;;;;4954363;28;20907;-61
2023/06/05 00:04:08;;;;;;;4.33;4.03;;;17.30;92.60;;;;;;4950312;29;20185;-61
2023/06/05 00:06:34;;;;;;;4.43;4.13;;;17.30;92.90;;;;;;4952898;29;20835;-62
2023/06/05 00:09:00;;;;;;;4.97;4.57;;;17.20;93.20;;;;;;4953377;29;20731;-62
2023/06/05 00:11:26;;;;;;;4.43;3.80;;;17.20;93.60;;;;;;4953056;29;20512;-61
2023/06/05 00:13:53;;;;;;;4.70;4.30;;;17.10;93.70;;;;;;4953781;28;20433;-60
2023/06/05 00:16:18;;;;;;;4.80;4.60;;;17.10;94.10;;;;;;4953682;29;20515;-61
2023/06/05 00:18:45;;;;;;;4.50;4.20;;;17.10;94.50;;;;;;4954668;29;20949;-62
2023/06/05 00:21:12;;;;;;;4.73;4.43;;;17.10;94.60;;;;;;4953181;28;20185;-61
2023/06/05 00:23:38;;;;;;;4.77;4.37;;;17.00;94.70;;;;;;4952602;29;20440;-62
2023/06/05 00:26:04;;;;;;;6.00;5.50;;;17.00;95.10;;;;;;4953864;29;20778;-61
2023/06/05 00:28:30;;;;;;;4.60;4.40;;;17.00;95.40;;;;;;4953547;29;20180;-62
2023/06/05 00:30:56;;;;;;;4.60;4.20;;;16.90;95.50;;;;;;4953097;28;20205;-60
2023/06/05 00:33:21;;;;;;;4.90;4.40;;;16.90;95.50;;;;;;4953794;29;20219;-61
2023/06/05 00:35:47;;;;;;;4.40;4.10;;;16.90;95.80;;;;;;4953205;29;20538;-62
2023/06/05 00:38:13;;;;;;;4.70;4.40;;;16.80;96.20;;;;;;4951697;29;20189;-61
2023/06/05 00:40:38;;;;;;;6.37;4.90;;;16.80;96.40;;;;;;4954462;29;20259;-62
2023/06/05 00:43:05;;;;;;;4.20;3.90;;;16.80;96.70;;;;;;4952591;29;20300;-61
2023/06/05 00:45:31;;;;;;;5.10;4.70;;;16.70;97.00;;;;;;4953652;28;20546;-62
2023/06/05 00:47:58;;;;;;;4.93;4.53;;;16.70;97.30;;;;;;4952832;29;20594;-60
2023/06/05 00:50:24;;;;;;;5.27;4.77;;;16.70;97.60;;;;;;4954179;29;20480;-61
2023/06/05 00:52:51;;;;;;;5.07;4.67;;;16.70;97.60;;;;;;4953512;29;20885;-62
2023/06/05 00:55:17;;;;;;;5.90;5.40;;;16.60;97.60;;;;;;4951945;28;20515;-61
2023/06/05 00:57:44;;;;;;;8.20;4.83;;;16.60;98.00;;;;;;4953550;29;20869;-60
2023/06/05 01:00:13;;;;;;;5.17;4.77;;;16.60;98.20;;;;;;4935423;29;20409;-61
2023/06/05 01:02:40;;;;;;;5.30;4.93;;;16.60;98.50;;;;;;4953439;29;20447;-61
2023/06/05 01:05:07;;;;;;;4.87;4.50;;;16.50;98.40;;;;;;4953050;28;20408;-61
2023/06/05 01:07:34;;;;;;;5.20;4.70;;;16.50;98.60;;;;;;4953220;28;20857;-61
2023/06/05 01:10:03;;;;;;;5.40;5.00;;;16.40;98.70;;;;;;4952553;29;20467;-60
2023/06/05 01:12:36;;;;;;;4.87;4.57;;;16.40;98.90;;;;;;4953681;29;20417;-61
2023/06/05 01:15:02;;;;;;;4.77;4.47;;;16.30;99.20;;;;;;4952777;28;20456;-61
2023/06/05 01:17:32;;;;;;;5.67;5.10;;;16.30;99.50;;;;;;4953292;28;20432;-61
2023/06/05 01:20:03;;;;;;;5.30;4.90;;;16.30;99.80;;;;;;4952464;29;20474;-60
2023/06/05 01:22:28;;;;;;;5.57;4.90;;;16.30;99.80;;;;;;4952940;28;20929;-61
2023/06/05 01:24:54;;;;;;;7.73;4.90;;;16.20;99.90;;;;;;4953045;28;20519;-61
2023/06/05 01:27:44;;;;;;;4.80;4.40;;;16.20;99.90;;;;;;4952237;28;20192;-61
2023/06/05 01:30:16;;;;;;;6.03;5.53;;;16.20;99.90;;;;;;4951813;29;20227;-61
2023/06/05 01:32:56;;;;;;;6.77;5.00;;;16.10;99.90;;;;;;4954034;28;20408;-61
2023/06/05 01:35:27;;;;;;;5.27;4.87;;;16.10;99.90;;;;;;4952640;29;20435;-61
2023/06/05 01:37:55;;;;;;;5.70;5.20;;;16.00;99.90;;;;;;4951814;28;20523;-61
2023/06/05 01:40:23;;;;;;;6.23;5.63;;;16.00;99.90;;;;;;4953025;29;20469;-61
2023/06/05 01:42:51;;;;;;;5.83;5.27;;;16.00;99.90;;;;;;4951444;29;20440;-61
2023/06/05 01:45:17;;;;;;;5.90;5.30;;;16.00;99.90;;;;;;4951518;29;20459;-60
2023/06/05 01:47:45;;;;;;;5.57;5.17;;;16.00;99.90;;;;;;4952074;29;20519;-61
2023/06/05 01:50:14;;;;;;;6.57;5.73;;;16.00;99.90;;;;;;4952877;28;20518;-61
2023/06/05 01:52:41;;;;;;;6.37;5.63;;;16.00;99.90;;;;;;4952660;28;20444;-61
2023/06/05 01:55:16;;;;;;;5.27;4.87;;;16.00;99.90;;;;;;4952226;28;20514;-61
2023/06/05 01:57:43;;;;;;;5.27;4.70;;;16.00;99.90;;;;;;4953329;29;20522;-62
2023/06/05 02:00:13;;;;;;;5.77;5.13;;;15.90;99.90;;;;;;4951955;28;20440;-61
2023/06/05 02:02:43;;;;;;;5.10;4.60;;;15.90;99.90;;;;;;4951813;29;20833;-62
2023/06/05 02:05:10;;;;;;;6.07;5.57;;;15.90;99.90;;;;;;4952937;28;20431;-61
2023/06/05 02:07:40;;;;;;;6.13;5.53;;;15.80;99.90;;;;;;4953146;28;20559;-61
2023/06/05 02:10:08;;;;;;;5.20;4.80;;;15.80;99.90;;;;;;4951437;28;20467;-61
2023/06/05 02:12:34;;;;;;;4.93;4.53;;;15.80;99.90;;;;;;4953207;28;20440;-61
2023/06/05 02:15:00;;;;;;;5.53;5.03;;;15.80;99.90;;;;;;4952883;29;20929;-60
2023/06/05 02:17:26;;;;;;;5.23;4.70;;;15.80;99.90;;;;;;4952687;28;20530;-61
2023/06/05 02:19:52;;;;;;;5.33;4.83;;;15.80;99.90;;;;;;4956733;28;20420;-62
2023/06/05 02:22:18;;;;;;;5.37;4.90;;;15.70;99.90;;;;;;4954825;28;20459;-61
2023/06/05 02:24:44;;;;;;;5.80;5.30;;;15.70;99.90;;;;;;4955566;29;20680;-61
2023/06/05 02:27:10;;;;;;;5.80;5.30;;;15.70;99.90;;;;;;4955248;29;20184;-61
2023/06/05 02:29:39;;;;;;;5.50;5.10;;;15.60;99.90;;;;;;4955979;29;20440;-61
2023/06/05 02:32:06;;;;;;;6.13;5.50;;;15.60;99.90;;;;;;4955136;29;20442;-60
2023/06/05 02:34:35;;;;;;;5.70;5.20;;;15.60;99.90;;;;;;4955788;28;20486;-61
2023/06/05 02:37:01;;;;;;;5.70;5.30;;;15.60;99.90;;;;;;4955726;29;20438;-60
2023/06/05 02:39:27;;;;;;;5.87;5.07;;;15.50;99.90;;;;;;4955228;28;20427;-61
2023/06/05 02:41:55;;;;;;;5.60;5.20;;;15.50;99.90;;;;;;4953859;29;20950;-61
2023/06/05 02:44:21;;;;;;;9.03;5.20;;;15.50;99.90;;;;;;4955284;28;20227;-61
2023/06/05 02:46:47;;;;;;;5.33;4.90;;;15.50;99.90;;;;;;4955757;28;20850;-61
2023/06/05 02:49:13;;;;;;;6.03;5.43;;;15.40;99.90;;;;;;4954927;28;20215;-61
2023/06/05 02:51:38;;;;;;;6.53;5.93;;;15.40;99.90;;;;;;4955374;29;20255;-61
2023/06/05 02:54:04;;;;;;;5.53;5.00;;;15.50;99.90;;;;;;4954738;29;20525;-60
2023/06/05 02:56:30;;;;;;;5.07;4.67;;;15.40;99.90;;;;;;4955420;29;20252;-61
2023/06/05 02:58:56;;;;;;;6.20;5.20;;;15.40;99.90;;;;;;4956212;29;20191;-61
2023/06/05 03:01:25;;;;;;;6.00;5.40;;;15.40;99.90;;;;;;4954984;28;20767;-61
2023/06/05 03:03:52;;;;;;;8.40;5.60;;;15.40;99.90;;;;;;4955740;28;20428;-61
2023/06/05 03:06:18;;;;;;;7.10;6.00;;;15.30;99.90;;;;;;4953379;29;20436;-61
2023/06/05 03:08:44;;;;;;;7.30;6.70;;;15.30;99.90;;;;;;4953866;29;20447;-61
2023/06/05 03:11:10;;;;;;;6.30;5.83;;;15.30;99.90;;;;;;4954475;29;20513;-61
2023/06/05 03:13:36;;;;;;;7.73;6.93;;;15.30;99.90;;;;;;4955572;29;20452;-61
2023/06/05 03:16:02;;;;;;;7.77;6.90;;;15.30;99.90;;;;;;4954840;29;21010;-61
2023/06/05 03:18:29;;;;;;;6.60;6.10;;;15.20;99.90;;;;;;4954052;29;20271;-61
2023/06/05 03:20:55;;;;;;;6.63;6.03;;;15.20;99.90;;;;;;4956078;28;20471;-61
2023/06/05 03:23:25;;;;;;;7.17;6.57;;;15.20;99.90;;;;;;4954517;28;20436;-61
2023/06/05 03:25:51;;;;;;;6.70;6.17;;;15.20;99.90;;;;;;4953980;29;20925;-61
2023/06/05 03:28:18;;;;;;;7.00;6.40;;;15.20;99.90;;;;;;4954539;28;20412;-61
2023/06/05 03:30:45;;;;;;;6.23;5.60;;;15.20;99.90;;;;;;4954220;29;20471;-62
2023/06/05 03:33:10;;;;;;;6.43;5.83;;;15.10;99.90;;;;;;4954097;28;20439;-61
2023/06/05 03:35:36;;;;;;;6.97;6.37;;;15.10;99.90;;;;;;4955015;28;20784;-61
2023/06/05 03:38:03;;;;;;;8.30;6.10;;;15.10;99.90;;;;;;4954940;29;20180;-61
2023/06/05 03:40:29;;;;;;;7.47;5.73;;;15.00;99.90;;;;;;4953743;29;20210;-61
2023/06/05 03:42:55;;;;;;;9.40;8.20;;;15.00;99.90;;;;;;4954583;28;20525;-62
2023/06/05 03:45:22;;;;;;;6.80;6.20;;;15.00;99.90;;;;;;4953757;29;20526;-61
2023/06/05 03:47:48;;;;;;;6.73;5.70;;;15.00;99.90;;;;;;4954269;28;20191;-62
2023/06/05 03:50:17;;;;;;;8.10;7.30;;;14.90;99.90;;;;;;4952991;29;20477;-61
2023/06/05 03:52:43;;;;;;;6.93;6.43;;;14.90;99.90;;;;;;4954513;28;20433;-61
2023/06/05 03:55:09;;;;;;;7.17;6.50;;;14.80;99.90;;;;;;4954268;29;20428;-60
2023/06/05 03:57:38;;;;;;;7.30;6.60;;;14.90;99.90;;;;;;4954907;29;20209;-62
2023/06/05 04:00:10;;;;;;;8.23;7.43;;;14.80;99.90;;;;;;4954348;29;20522;-62
2023/06/05 04:02:37;;;;;;;6.77;6.27;;;14.80;99.90;;;;;;4954967;29;20544;-62
2023/06/05 04:05:03;;;;;;;7.43;6.70;;;14.80;99.90;;;;;;4954265;28;20427;-62
2023/06/05 04:07:29;;;;;;;8.87;8.00;;;14.80;99.90;;;;;;4954095;28;20418;-62
2023/06/05 04:09:55;;;;;;;8.27;7.50;;;14.70;99.90;;;;;;4954376;28;20997;-62
2023/06/05 04:12:21;;;;;;;7.53;6.83;;;14.70;99.90;;;;;;4952647;29;20476;-62
2023/06/05 04:14:47;;;;;;;7.60;6.90;;;14.60;99.90;;;;;;4953162;28;20542;-62
2023/06/05 04:17:13;;;;;;;8.90;8.13;;;14.60;99.90;;;;;;4952733;29;20918;-61
2023/06/05 04:19:40;;;;;;;8.13;7.30;;;14.70;99.90;;;;;;4954684;28;20402;-62
2023/06/05 04:22:06;;;;;;;7.43;6.80;;;14.70;99.90;;;;;;4953873;29;20444;-60
2023/06/05 04:24:32;;;;;;;7.40;6.53;;;14.70;99.90;;;;;;4953577;29;20469;-62
2023/06/05 04:27:00;;;;;;;13.70;7.10;;;14.70;99.90;;;;;;4953905;29;20930;-62
2023/06/05 04:29:26;;;;;;;8.00;7.20;;;14.70;99.90;;;;;;4953644;28;20184;-61
2023/06/05 04:31:52;;;;;;;8.40;6.70;;;14.80;99.90;;;;;;4954457;29;20461;-62
2023/06/05 04:34:20;;;;;;;11.23;10.13;;;14.80;99.90;;;;;;4953752;28;20395;-61
2023/06/05 04:36:49;;;;;;;8.50;7.80;;;14.80;99.90;;;;;;4954050;28;20513;-62
2023/06/05 04:39:15;;;;;;;10.43;7.83;;;14.70;99.90;;;;;;4953662;28;20498;-61
2023/06/05 04:41:46;;;;;;;8.80;7.90;;;14.60;99.90;;;;;;4952026;28;20472;-62
2023/06/05 04:44:18;;;;;;;9.00;8.13;;;14.60;99.90;;;;;;4952579;28;20224;-60
2023/06/05 04:46:47;;;;;;;9.03;8.20;;;14.40;99.90;;;;;;4954473;28;20419;-61
2023/06/05 04:49:14;;;;;;;10.13;8.83;;;14.20;99.90;;;;;;4952777;29;20440;-61
2023/06/05 04:51:41;;;;;;;9.50;8.63;;;14.20;99.90;;;;;;4953442;29;20478;-61
2023/06/05 04:54:06;;;;;;;12.07;8.47;;;14.10;99.90;;;;;;4953498;29;20441;-61
2023/06/05 04:56:35;;;;;;;7.70;7.10;;;14.00;99.90;;;;;;4953217;29;20417;-61
2023/06/05 04:59:02;;;;;;;10.43;9.43;;;13.90;99.90;;;;;;4953469;28;20193;-62
2023/06/05 05:01:29;;;;;;;10.27;8.53;;;14.00;99.90;;;;;;4952509;28;20475;-61
2023/06/05 05:03:54;;;;;;;8.37;7.53;;;13.90;99.90;;;;;;4953019;28;20428;-61
2023/06/05 05:06:21;;;;;;;7.70;7.00;;;13.80;99.90;;;;;;4952427;29;20439;-61
2023/06/05 05:08:50;;;;;;;12.20;11.00;;;13.90;99.90;;;;;;4953422;29;20181;-61
2023/06/05 05:11:17;;;;;;;8.47;7.67;;;14.00;99.90;;;;;;4938323;28;20808;-61
2023/06/05 05:13:43;;;;;;;9.90;8.13;;;13.90;99.90;;;;;;4951118;29;20437;-61
2023/06/05 05:16:10;;;;;;;9.93;9.00;;;13.90;99.90;;;;;;4953361;28;20759;-60
2023/06/05 05:18:39;;;;;;;8.73;7.00;;;13.90;99.90;;;;;;4953898;28;20409;-61
2023/06/05 05:21:05;;;;;;;9.07;8.27;;;13.90;99.90;;;;;;4953340;28;20433;-62
2023/06/05 05:23:33;;;;;;;9.30;8.50;;;14.00;99.90;;;;;;4952481;28;20452;-61
2023/06/05 05:25:59;;;;;;;9.03;7.20;;;14.20;99.90;;;;;;4952887;29;20500;-61
2023/06/05 05:28:25;;;;;;;8.47;7.43;;;14.40;99.90;;;;;;4952538;28;20453;-61
2023/06/05 05:30:51;;;;;;;10.33;9.33;;;14.60;99.90;;;;;;4950485;29;20466;-61
2023/06/05 05:33:17;;;;;;;9.50;8.50;;;14.70;99.90;;;;;;4936491;29;20183;-61
2023/06/05 05:35:44;;;;;;;9.83;9.03;;;14.90;99.90;;;;;;4953586;28;20416;-61
2023/06/05 05:38:09;;;;;;;9.00;8.10;;;15.00;99.90;;;;;;4952500;28;20435;-61
2023/06/05 05:40:35;;;;;;;8.23;7.43;;;15.10;99.90;;;;;;4952419;29;20435;-61
2023/06/05 05:43:01;;;;;;;9.00;8.10;;;15.10;99.90;;;;;;4953456;29;20576;-61
2023/06/05 05:45:27;;;;;;;8.07;7.20;;;15.10;99.90;;;;;;4951962;29;20194;-61
2023/06/05 05:47:52;;;;;;;8.37;7.60;;;15.00;99.90;;;;;;4952499;29;20183;-61
2023/06/05 05:50:18;;;;;;;9.90;9.00;;;15.00;99.90;;;;;;4952843;28;20549;-61
2023/06/05 05:52:44;;;;;;;12.77;9.97;;;15.00;99.90;;;;;;4950089;28;20237;-62
2023/06/05 05:55:10;;;;;;;10.27;7.90;;;15.00;99.90;;;;;;4955041;29;20669;-62
2023/06/05 05:57:36;;;;;;;9.00;8.10;;;14.90;99.90;;;;;;4956244;28;20441;-62
2023/06/05 06:00:05;;;;;;;9.67;8.87;;;15.00;99.90;;;;;;4956475;29;20417;-62
2023/06/05 06:02:32;;;;;;;8.27;7.57;;;15.10;99.90;;;;;;4950585;28;20900;-61
2023/06/05 06:04:57;;;;;;;8.23;7.50;;;15.20;99.90;;;;;;4951831;28;20439;-60
2023/06/05 06:07:23;;;;;;;8.90;8.00;;;15.30;99.90;;;;;;4952439;29;20441;-60
2023/06/05 06:09:49;;;;;;;10.40;9.40;;;15.40;99.90;;;;;;4951661;29;20244;-59
2023/06/05 06:12:15;;;;;;;8.37;7.63;;;15.50;99.90;;;;;;4955673;29;20628;-59
2023/06/05 06:14:41;;;;;;;7.53;6.83;;;15.60;99.90;;;;;;4954606;29;20277;-60
2023/06/05 06:17:10;;;;;;;8.13;7.10;;;15.70;99.90;;;;;;4952692;28;20446;-59
2023/06/05 06:19:35;;;;;;;8.20;7.60;;;15.80;99.90;;;;;;4954460;28;21136;-60
2023/06/05 06:22:01;;;;;;;7.63;6.90;;;15.90;99.90;;;;;;4954786;28;20432;-60
2023/06/05 06:24:27;;;;;;;7.50;6.90;;;16.00;99.90;;;;;;4955022;28;20200;-59
2023/06/05 06:26:53;;;;;;;8.07;7.00;;;16.10;99.90;;;;;;4952022;29;20244;-60
2023/06/05 06:29:20;;;;;;;7.93;7.13;;;16.10;99.90;;;;;;4949494;28;20204;-59
2023/06/05 06:31:46;;;;;;;8.73;7.93;;;16.00;99.90;;;;;;4953151;29;20515;-60
2023/06/05 06:34:12;;;;;;;9.97;7.43;;;16.00;99.90;;;;;;4954219;28;20425;-60
2023/06/05 06:36:43;;;;;;;10.57;7.83;;;16.10;99.90;;;;;;4953427;29;20967;-60
2023/06/05 06:39:10;;;;;;;7.20;6.50;;;16.20;99.90;;;;;;4954673;29;20429;-60
2023/06/05 06:41:36;;;;;;;9.37;6.60;;;16.30;99.90;;;;;;4951006;28;20428;-60
2023/06/05 06:44:03;;;;;;;7.23;6.53;;;16.50;99.90;;;;;;4952868;28;20523;-60
2023/06/05 06:46:30;;;;;;;9.37;8.50;;;16.60;99.90;;;;;;4950237;29;20428;-60
2023/06/05 06:48:56;;;;;;;9.77;7.73;;;16.50;99.90;;;;;;4955764;28;20436;-60
2023/06/05 06:51:22;;;;;;;10.53;9.53;;;16.40;99.90;;;;;;4949305;28;20526;-60
2023/06/05 06:53:48;;;;;;;26.03;18.77;;;16.30;99.90;;;;;;4953430;29;20188;-60
2023/06/05 06:56:15;;;;;;;11.20;10.03;;;16.40;99.90;;;;;;4950775;28;20193;-61
2023/06/05 06:58:42;;;;;;;8.40;7.60;;;16.60;99.90;;;;;;4950098;28;20468;-62
2023/06/05 07:01:09;;;;;;;8.03;7.20;;;16.60;99.90;;;;;;4951693;29;20974;-61
2023/06/05 07:03:35;;;;;;;9.80;7.50;;;16.50;99.90;;;;;;4954751;28;20509;-61
2023/06/05 07:06:01;;;;;;;8.53;7.73;;;16.50;99.90;;;;;;4954379;28;20432;-62
2023/06/05 07:08:27;;;;;;;13.33;11.30;;;16.60;99.90;;;;;;4954453;28;20437;-61
2023/06/05 07:10:56;;;;;;;9.63;8.80;;;16.80;99.90;;;;;;4956325;29;20606;-62
2023/06/05 07:13:23;;;;;;;8.50;7.80;;;16.90;99.90;;;;;;4951932;29;20189;-64
2023/06/05 07:15:49;;;;;;;7.77;7.03;;;17.00;99.90;;;;;;4954366;29;20467;-62
2023/06/05 07:18:17;;;;;;;9.47;8.50;;;16.90;99.90;;;;;;4955697;28;20968;-60
2023/06/05 07:20:42;;;;;;;8.17;7.23;;;17.00;99.90;;;;;;4953329;29;20428;-65
2023/06/05 07:23:08;;;;;;;8.47;7.77;;;17.20;99.90;;;;;;4954965;28;20443;-63
2023/06/05 07:25:37;;;;;;;9.23;8.33;;;17.30;99.90;;;;;;4950412;29;20200;-61
2023/06/05 07:28:08;;;;;;;8.07;7.37;;;17.50;99.90;;;;;;4953180;28;20181;-67
2023/06/05 07:30:33;;;;;;;8.33;7.73;;;17.50;99.90;;;;;;4954488;28;20461;-63
2023/06/05 07:32:59;;;;;;;13.50;11.50;;;17.60;99.90;;;;;;4940700;29;20424;-65
2023/06/05 07:35:25;;;;;;;11.50;10.47;;;17.80;99.90;;;;;;4954056;29;20298;-62
2023/06/05 07:37:51;;;;;;;7.73;7.03;;;17.90;99.90;;;;;;4953963;29;20181;-61
2023/06/05 07:40:18;;;;;;;9.67;9.07;;;18.00;99.90;;;;;;4955195;29;20288;-61
2023/06/05 07:42:43;;;;;;;8.13;7.33;;;18.20;99.90;;;;;;4954999;28;20496;-60
2023/06/05 07:45:10;;;;;;;14.93;12.17;;;18.40;99.90;;;;;;4948872;29;20523;-61
2023/06/05 07:47:35;;;;;;;37.53;31.13;;;18.50;99.90;;;;;;4952381;28;20200;-60
2023/06/05 07:50:04;;;;;;;28.33;21.73;;;18.60;99.20;;;;;;4951508;29;20422;-72
2023/06/05 07:52:31;;;;;;;605.40;420.47;;;18.50;98.80;;;;;;4947957;28;20189;-61
2023/06/05 07:54:57;;;;;;;42.07;31.50;;;18.70;99.90;;;;;;4946816;28;20413;-61
2023/06/05 07:57:29;;;;;;;43.67;37.73;;;19.00;99.90;;;;;;4945399;29;20786;-60
2023/06/05 07:59:55;;;;;;;8.33;7.53;;;19.10;99.40;;;;;;4945388;28;20405;-64
2023/06/05 08:02:21;;;;;;;8.27;7.57;;;19.30;97.90;;;;;;4944716;29;20914;-60
2023/06/05 08:04:47;;;;;;;6.40;5.90;;;19.30;98.30;;;;;;4946844;28;20264;-62
2023/06/05 08:07:13;;;;;;;7.43;5.93;;;19.50;98.10;;;;;;4946710;28;20517;-60
2023/06/05 08:09:39;;;;;;;12.70;11.53;;;19.70;98.40;;;;;;4949368;29;20243;-58
2023/06/05 08:12:06;;;;;;;7.03;6.17;;;19.80;98.30;;;;;;4947934;29;20480;-59
2023/06/05 08:14:33;;;;;;;7.80;7.00;;;20.10;98.50;;;;;;4945724;28;20413;-61
2023/06/05 08:16:59;;;;;;;40.30;28.23;;;19.90;96.00;;;;;;4954838;28;20417;-62
2023/06/05 08:19:25;;;;;;;36.23;26.40;;;20.00;98.80;;;;;;4953901;28;20421;-60
2023/06/05 08:21:53;;;;;;;32.80;24.20;;;20.30;98.90;;;;;;4954574;29;20432;-60
2023/06/05 08:24:20;;;;;;;10.67;9.67;;;20.60;98.30;;;;;;4954424;28;20662;-59
2023/06/05 08:26:46;;;;;;;11.90;10.73;;;20.90;96.70;;;;;;4954058;28;20519;-59
2023/06/05 08:29:12;;;;;;;21.60;16.83;;;21.10;95.30;;;;;;4953968;29;20519;-59
2023/06/05 08:31:40;;;;;;;14.63;12.50;;;21.20;95.80;;;;;;4954293;28;20220;-59
2023/06/05 08:34:06;;;;;;;7.67;6.87;;;21.40;95.20;;;;;;4954112;28;20416;-59
2023/06/05 08:36:32;;;;;;;18.00;14.73;;;21.60;93.30;;;;;;4953476;28;20992;-59
2023/06/05 08:38:59;;;;;;;8.17;7.47;;;21.70;94.10;;;;;;4955219;28;20199;-59
2023/06/05 08:41:25;;;;;;;8.30;7.40;;;21.80;94.70;;;;;;4953499;28;20829;-59
2023/06/05 08:43:51;;;;;;;13.43;12.00;;;21.90;93.50;;;;;;4953891;28;20472;-59
2023/06/05 08:46:18;;;;;;;7.80;6.33;;;22.10;92.70;;;;;;4955060;28;20633;-59
2023/06/05 08:48:50;;;;;;;15.20;13.67;;;22.20;91.20;;;;;;4953216;29;20436;-59
2023/06/05 08:51:17;;;;;;;9.80;8.90;;;22.30;92.30;;;;;;4953945;28;20452;-59
2023/06/05 08:54:04;;;;;;;15.20;9.43;;;22.50;91.90;;;;;;4953644;29;20776;-59
2023/06/05 08:56:31;;;;;;;10.40;9.30;;;22.50;91.60;;;;;;4951581;29;20936;-59
2023/06/05 08:58:57;;;;;;;8.63;7.90;;;22.70;91.60;;;;;;4953733;29;20425;-59
2023/06/05 09:01:24;;;;;;;10.73;9.73;;;22.70;90.20;;;;;;4953407;28;20915;-59
2023/06/05 09:03:50;;;;;;;13.47;11.80;;;22.80;90.50;;;;;;4954035;29;20414;-59
2023/06/05 09:06:16;;;;;;;14.00;12.60;;;22.90;90.40;;;;;;4952924;28;20920;-58
2023/06/05 09:08:41;;;;;;;30.10;26.83;;;23.00;90.50;;;;;;4952596;28;20177;-59
2023/06/05 09:11:30;;;;;;;33.23;29.83;;;23.00;89.70;;;;;;4953050;29;20212;-59
2023/06/05 09:14:00;;;;;;;149.10;132.27;;;23.10;89.70;;;;;;4953023;29;20197;-59
2023/06/05 09:16:43;;;;;;;96.53;78.20;;;23.30;89.50;;;;;;4952664;29;20433;-59
2023/06/05 09:19:11;;;;;;;14.57;13.07;;;23.30;88.10;;;;;;4947908;29;20459;-59
2023/06/05 09:21:37;;;;;;;21.13;19.03;;;23.50;86.90;;;;;;4942555;29;20422;-59
2023/06/05 09:24:07;;;;;;;10.90;9.93;;;23.50;85.50;;;;;;4944904;29;20433;-59
2023/06/05 09:26:48;;;;;;;8.63;7.93;;;23.50;86.20;;;;;;4951470;28;20455;-66
2023/06/05 09:29:23;;;;;;;11.17;9.33;;;23.60;87.70;;;;;;4949837;29;20402;-66
2023/06/05 09:31:51;;;;;;;8.57;7.77;;;23.70;86.70;;;;;;4949983;28;20449;-66
2023/06/05 09:34:29;;;;;;;6.53;5.87;;;23.80;85.80;;;;;;4950864;28;20436;-66
2023/06/05 09:36:57;;;;;;;8.17;7.37;;;23.90;87.50;;;;;;4948186;29;20436;-65
2023/06/05 09:39:25;;;;;;;32.30;27.10;;;24.00;86.40;;;;;;4954551;28;20422;-66
2023/06/05 09:41:51;;;;;;;56.70;45.33;;;24.10;86.40;;;;;;4953102;28;20433;-65
2023/06/05 09:44:18;;;;;;;31.47;27.90;;;24.20;84.60;;;;;;4956884;28;20477;-65
2023/06/05 09:46:52;;;;;;;33.27;21.83;;;24.20;83.60;;;;;;4952919;28;20407;-66
2023/06/05 09:49:18;;;;;;;8.70;7.90;;;24.20;80.10;;;;;;4957520;28;20417;-66
2023/06/05 09:51:44;;;;;;;7.57;6.90;;;24.30;82.60;;;;;;4969264;28;20510;-66
2023/06/05 09:54:11;;;;;;;6.00;5.57;;;24.40;82.00;;;;;;4956431;28;20487;-66
2023/06/05 09:56:41;;;;;;;9.80;8.80;;;24.40;79.40;;;;;;4954901;28;20425;-65
2023/06/05 09:59:09;;;;;;;9.67;8.73;;;24.30;81.10;;;;;;4953022;28;20782;-66
2023/06/05 10:01:36;;;;;;;7.27;6.30;;;24.40;81.60;;;;;;4955761;28;20432;-64
2023/06/05 10:04:12;;;;;;;8.50;6.03;;;24.50;81.90;;;;;;4957051;29;20404;-65
2023/06/05 10:06:40;;;;;;;8.03;7.43;;;24.60;81.00;;;;;;4955904;29;20428;-65
2023/06/05 10:09:07;;;;;;;6.70;6.20;;;24.60;80.60;;;;;;4956145;28;20423;-65
2023/06/05 10:11:33;;;;;;;6.13;5.73;;;24.10;77.80;;;;;;4955611;28;20505;-64
2023/06/05 10:14:00;;;;;;;7.63;5.80;;;23.50;79.00;;;;;;4955581;29;20814;-64
2023/06/05 10:16:30;;;;;;;6.00;5.40;;;23.10;80.90;;;;;;4955685;28;20432;-66
2023/06/05 10:18:57;;;;;;;6.47;5.93;;;23.00;86.70;;;;;;4951580;29;20487;-65
2023/06/05 10:21:24;;;;;;;7.23;6.73;;;23.20;83.00;;;;;;4951512;28;20789;-65
2023/06/05 10:24:03;;;;;;;6.03;5.50;;;23.50;86.40;;;;;;4954761;28;20432;-65
2023/06/05 10:26:43;;;;;;;8.43;7.93;;;23.70;81.60;;;;;;4951021;29;20479;-66
2023/06/05 10:29:46;;;;;;;9.50;8.60;;;23.80;80.60;;;;;;4952453;29;20444;-65
2023/06/05 10:32:40;;;;;;;5.13;4.73;;;23.90;80.50;;;;;;4952586;29;20542;-61
2023/06/05 10:35:16;;;;;;;6.57;6.07;;;24.10;79.90;;;;;;4950626;29;20428;-63
2023/06/05 10:38:09;;;;;;;4.83;4.33;;;24.30;78.10;;;;;;4952916;28;20428;-61
2023/06/05 10:40:35;;;;;;;5.90;5.30;;;24.40;77.10;;;;;;4952212;29;21008;-61
2023/06/05 10:43:43;;;;;;;6.43;6.03;;;24.50;76.70;;;;;;4953423;28;20826;-61
2023/06/05 10:46:41;;;;;;;7.43;6.83;;;24.60;77.90;;;;;;4943234;29;20433;-63
2023/06/05 10:49:17;;;;;;;5.67;5.27;;;24.80;77.50;;;;;;4941467;29;20417;-67
2023/06/05 10:51:46;;;;;;;6.30;5.70;;;24.90;77.90;;;;;;4954173;28;20796;-66
2023/06/05 10:54:15;;;;;;;6.90;6.50;;;25.10;75.20;;;;;;4955289;28;20638;-64
2023/06/05 10:57:02;;;;;;;7.10;6.50;;;25.20;76.90;;;;;;4955969;28;20496;-64
2023/06/05 10:59:32;;;;;;;6.43;5.97;;;25.30;71.70;;;;;;4953934;29;20524;-61
2023/06/05 11:04:46;;;;;;;13.10;11.83;;;25.30;71.70;;;;;;4952446;29;20439;-72
2023/06/05 11:07:30;;;;;;;7.23;6.57;;;25.30;69.90;;;;;;4954920;28;20409;-65
2023/06/05 11:10:02;;;;;;;4.90;4.33;;;25.30;70.00;;;;;;4953743;29;20815;-64
2023/06/05 11:12:50;;;;;;;7.80;7.07;;;25.30;72.20;;;;;;4952376;29;20768;-68
2023/06/05 11:15:22;;;;;;;6.47;5.97;;;25.40;70.00;;;;;;4945446;29;20459;-63
2023/06/05 11:17:48;;;;;;;5.03;4.63;;;25.60;73.40;;;;;;4955521;29;20905;-63
2023/06/05 11:20:23;;;;;;;6.20;5.80;;;25.70;71.10;;;;;;4950027;29;20425;-64
2023/06/05 11:22:57;;;;;;;6.10;5.60;;;25.90;70.00;;;;;;4954544;29;20271;-64
2023/06/05 11:25:30;;;;;;;5.87;5.37;;;26.00;67.40;;;;;;4961239;28;20808;-62
2023/06/05 11:28:08;;;;;;;5.90;5.40;;;26.10;67.30;;;;;;4952262;29;20425;-63
2023/06/05 11:30:43;;;;;;;20.40;18.43;;;26.20;68.10;;;;;;4951165;29;20499;-64
2023/06/05 11:33:12;;;;;;;178.97;159.87;;;26.30;68.20;;;;;;4953440;28;20503;-63
2023/06/05 11:35:42;;;;;;;7.97;7.33;;;26.20;66.50;;;;;;4951969;28;20432;-58
2023/06/05 11:38:09;;;;;;;6.67;6.23;;;26.20;61.90;;;;;;4954932;28;20429;-57
2023/06/05 11:40:35;;;;;;;7.13;5.43;;;26.30;66.20;;;;;;4947570;29;20432;-58
2023/06/05 11:43:09;;;;;;;5.40;5.00;;;26.30;60.10;;;;;;4954651;29;20457;-57
2023/06/05 11:45:36;;;;;;;5.60;5.30;;;26.30;63.60;;;;;;4948020;29;20430;-58
2023/06/05 11:48:09;;;;;;;5.60;5.10;;;26.30;61.70;;;;;;4951691;29;20445;-55
2023/06/05 11:50:52;;;;;;;6.10;5.70;;;26.30;62.70;;;;;;4948077;28;20558;-60
2023/06/05 11:53:18;;;;;;;5.70;5.37;;;26.30;61.10;;;;;;4951976;29;20507;-57
2023/06/05 11:58:27;;;;;;;5.20;4.80;;;26.10;57.00;;;;;;4945956;29;20432;-58
2023/06/05 12:01:25;;;;;;;5.07;4.77;;;26.10;57.30;;;;;;4953592;28;20575;-58
2023/06/05 12:04:21;;;;;;;5.53;5.07;;;26.10;55.80;;;;;;4953834;29;20413;-58
2023/06/05 12:06:47;;;;;;;4.67;4.37;;;26.00;52.00;;;;;;4942988;29;20437;-58
2023/06/05 12:09:15;;;;;;;4.50;4.20;;;25.90;51.50;;;;;;4953924;28;20440;-58
2023/06/05 12:11:42;;;;;;;4.90;4.60;;;25.90;51.70;;;;;;4952014;29;20793;-62
2023/06/05 12:14:13;;;;;;;4.83;4.53;;;25.90;50.90;;;;;;4951742;29;20793;-57
2023/06/05 12:16:43;;;;;;;4.90;4.50;;;25.60;53.70;;;;;;4966176;28;20742;-57
2023/06/05 12:19:13;;;;;;;4.63;4.33;;;25.70;56.00;;;;;;4953338;29;20428;-57
2023/06/05 12:21:39;;;;;;;5.93;5.63;;;25.90;56.00;;;;;;4947901;29;20447;-58
2023/06/05 12:24:06;;;;;;;6.20;5.70;;;26.00;55.90;;;;;;4953427;28;20908;-58
2023/06/05 12:26:58;;;;;;;5.87;5.47;;;26.10;56.80;;;;;;4951384;29;20546;-66
2023/06/05 12:29:30;;;;;;;6.30;5.90;;;26.20;55.90;;;;;;4948236;29;20428;-59
2023/06/05 12:31:57;;;;;;;5.33;4.97;;;26.30;54.40;;;;;;4949319;28;20556;-57
2023/06/05 12:34:46;;;;;;;5.33;5.03;;;26.20;53.30;;;;;;4954135;28;20463;-57
2023/06/05 12:37:27;;;;;;;5.10;4.70;;;26.10;54.50;;;;;;4951623;29;20492;-59
2023/06/05 12:39:53;;;;;;;5.07;4.67;;;26.10;52.80;;;;;;4950021;29;20943;-58
2023/06/05 12:42:19;;;;;;;5.50;4.67;;;26.10;53.70;;;;;;4953213;28;20420;-58
2023/06/05 12:44:45;;;;;;;4.87;4.40;;;26.20;54.70;;;;;;4951440;28;20464;-65
2023/06/05 12:47:11;;;;;;;4.80;4.60;;;26.30;56.00;;;;;;4951715;28;20692;-58
2023/06/05 12:49:36;;;;;;;5.07;4.87;;;26.40;55.20;;;;;;4953144;28;20177;-65
2023/06/05 12:52:03;;;;;;;5.23;4.93;;;26.40;54.30;;;;;;4949592;29;20220;-58
2023/06/05 12:54:30;;;;;;;4.73;4.43;;;26.50;57.00;;;;;;4952928;28;20256;-58
2023/06/05 12:56:57;;;;;;;5.30;4.90;;;26.50;54.80;;;;;;4952456;28;20796;-57